createdAt,value
2024-05-09T00:03:41.291Z,13.00
2024-05-09T00:08:43.242Z,13.00
2024-05-09T00:13:45.056Z,13.00
2024-05-09T00:18:47.071Z,13.00
2024-05-09T00:23:48.966Z,13.00
2024-05-09T00:28:50.878Z,13.00
2024-05-09T00:33:54.198Z,13.00
2024-05-09T00:38:56.090Z,13.00
2024-05-09T00:43:57.977Z,13.10
2024-05-09T00:49:00.350Z,13.10
2024-05-09T00:54:02.530Z,13.00
2024-05-09T00:59:04.599Z,13.10
2024-05-09T01:04:06.922Z,13.00
2024-05-09T01:09:09.144Z,12.90
2024-05-09T01:14:10.944Z,12.90
2024-05-09T01:19:22.884Z,13.00
2024-05-09T01:24:24.822Z,13.00
2024-05-09T01:29:26.830Z,12.80
2024-05-09T01:34:28.773Z,12.80
2024-05-09T01:39:30.601Z,12.90
2024-05-09T01:44:32.468Z,12.90
2024-05-09T01:49:36.335Z,12.90
2024-05-09T01:54:38.204Z,13.00
2024-05-09T01:59:40.086Z,13.00
2024-05-09T02:04:42.090Z,13.00
2024-05-09T02:09:43.958Z,12.90
2024-05-09T02:14:45.741Z,12.90
2024-05-09T02:19:47.633Z,12.90
2024-05-09T02:24:49.434Z,12.80
2024-05-09T02:29:51.595Z,12.80
2024-05-09T02:34:53.393Z,12.90
2024-05-09T02:39:55.209Z,12.90
2024-05-09T02:44:56.995Z,12.90
2024-05-09T02:49:58.786Z,12.80
2024-05-09T02:55:00.602Z,12.80
2024-05-09T03:00:03.592Z,12.90
2024-05-09T03:05:06.662Z,12.80
2024-05-09T03:10:18.136Z,12.90
2024-05-09T03:15:24.274Z,12.80
2024-05-09T03:20:32.567Z,12.80
2024-05-09T03:25:36.587Z,12.90
2024-05-09T03:30:42.037Z,12.60
2024-05-09T03:35:45.014Z,12.70
2024-05-09T03:40:48.878Z,12.60
2024-05-09T03:45:51.461Z,12.70
2024-05-09T03:50:53.433Z,12.80
2024-05-09T03:55:56.971Z,12.90
2024-05-09T04:00:58.882Z,12.90
2024-05-09T04:06:00.715Z,12.80
2024-05-09T04:11:02.661Z,12.70
2024-05-09T04:16:04.841Z,12.90
2024-05-09T04:21:06.782Z,13.00
2024-05-09T04:26:08.852Z,12.90
2024-05-09T04:31:10.746Z,12.90
2024-05-09T04:36:12.663Z,13.10
2024-05-09T04:41:14.554Z,13.10
2024-05-09T04:46:16.370Z,13.20
2024-05-09T04:51:18.299Z,13.10
2024-05-09T04:56:20.163Z,13.20
2024-05-09T05:01:22.032Z,13.30
2024-05-09T05:06:23.957Z,13.30
2024-05-09T05:11:25.839Z,13.20
2024-05-09T05:16:27.719Z,13.20
2024-05-09T05:21:29.550Z,13.20
2024-05-09T05:26:31.691Z,13.40
2024-05-09T05:31:33.620Z,13.40
2024-05-09T05:36:35.421Z,13.40
2024-05-09T05:41:37.247Z,13.60
2024-05-09T05:46:39.083Z,13.50
2024-05-09T05:51:40.884Z,13.70
2024-05-09T05:56:42.750Z,13.70
2024-05-09T06:01:44.572Z,13.70
2024-05-09T06:06:46.514Z,13.50
2024-05-09T06:11:48.465Z,13.70
2024-05-09T06:16:50.417Z,13.90
2024-05-09T06:21:52.285Z,13.90
2024-05-09T06:26:54.085Z,14.10
2024-05-09T06:31:57.167Z,14.10
2024-05-09T06:37:01.262Z,14.30
2024-05-09T06:42:03.178Z,14.30
2024-05-09T06:47:05.101Z,14.20
2024-05-09T06:52:07.113Z,14.20
2024-05-09T06:57:08.900Z,14.40
2024-05-09T07:02:10.940Z,14.60
2024-05-09T07:07:12.756Z,14.60
2024-05-09T07:12:14.742Z,14.80
2024-05-09T07:17:17.355Z,14.90
2024-05-09T07:22:19.211Z,15.00
2024-05-09T07:27:21.015Z,15.20
2024-05-09T07:32:23.009Z,15.40
2024-05-09T07:37:24.994Z,15.40
2024-05-09T07:42:26.843Z,15.40
2024-05-09T07:48:57.227Z,15.40
2024-05-09T07:53:35.358Z,15.40
2024-05-09T07:58:12.963Z,15.50
2024-05-09T08:03:14.914Z,15.90
2024-05-09T08:08:16.898Z,16.00
2024-05-09T08:13:18.986Z,16.10
2024-05-09T08:18:20.956Z,16.30
2024-05-09T08:23:23.795Z,16.20
2024-05-09T08:28:25.681Z,16.20
2024-05-09T08:33:27.697Z,16.40
2024-05-09T08:38:29.595Z,16.60
2024-05-09T08:43:31.509Z,16.50
2024-05-09T08:48:36.812Z,16.40
2024-05-09T08:53:38.895Z,16.30
2024-05-09T08:58:42.580Z,16.30
2024-05-09T09:03:45.743Z,16.30
2024-05-09T09:08:48.574Z,16.40
2024-05-09T09:13:50.449Z,16.40
2024-05-09T09:18:53.408Z,16.40
2024-05-09T09:23:55.712Z,16.20
2024-05-09T09:29:04.432Z,16.10
2024-05-09T09:34:08.327Z,16.30
2024-05-09T09:39:10.630Z,16.50
2024-05-09T09:44:12.573Z,16.50
2024-05-09T09:49:15.464Z,16.50
2024-05-09T09:54:19.119Z,16.30
2024-05-09T09:59:21.910Z,16.20
2024-05-09T10:04:24.808Z,16.40
2024-05-09T10:09:27.052Z,16.40
2024-05-09T10:14:30.993Z,16.20
2024-05-09T10:19:35.310Z,16.10
2024-05-09T10:24:53.875Z,16.20
2024-05-09T10:29:57.690Z,16.40
2024-05-09T10:35:15.017Z,16.50
2024-05-09T10:40:26.100Z,16.70
2024-05-09T10:45:32.752Z,16.70
2024-05-09T10:50:35.688Z,16.50
2024-05-09T10:55:37.570Z,16.50
2024-05-09T11:00:41.197Z,16.50
2024-05-09T11:05:43.514Z,16.60
2024-05-09T11:10:45.935Z,16.70
2024-05-09T11:15:47.806Z,16.80
2024-05-09T11:20:51.301Z,16.80
2024-05-09T11:25:57.890Z,17.00
2024-05-09T11:31:10.534Z,17.00
2024-05-09T11:36:13.471Z,17.10
2024-05-09T11:41:18.798Z,16.90
2024-05-09T11:46:20.948Z,17.00
2024-05-09T11:51:22.874Z,16.90
2024-05-09T11:56:24.717Z,16.90
2024-05-09T12:01:27.836Z,16.90
2024-05-09T12:06:30.189Z,16.90
2024-05-09T12:11:32.252Z,17.00
2024-05-09T12:16:34.716Z,17.10
2024-05-09T12:21:36.672Z,17.10
2024-05-09T12:26:38.647Z,17.20
2024-05-09T12:31:40.485Z,17.00
2024-05-09T12:36:43.112Z,17.20
2024-05-09T12:41:45.012Z,17.30
2024-05-09T12:46:47.108Z,17.40
2024-05-09T12:51:48.915Z,17.70
2024-05-09T12:56:51.066Z,17.90
2024-05-09T13:01:52.951Z,18.20
2024-05-09T13:06:54.852Z,18.00
2024-05-09T13:11:57.101Z,18.40
2024-05-09T13:16:59.065Z,18.70
2024-05-09T13:22:00.970Z,19.10
2024-05-09T13:27:02.891Z,19.50
2024-05-09T13:32:05.134Z,19.40
2024-05-09T13:37:07.286Z,19.60
2024-05-09T13:42:10.036Z,20.00
2024-05-09T13:47:12.469Z,20.40
2024-05-09T13:52:14.516Z,20.50
2024-05-09T13:57:16.734Z,20.90
2024-05-09T14:02:18.889Z,21.10
2024-05-09T14:07:20.920Z,21.10
2024-05-09T14:12:22.739Z,21.30
2024-05-09T14:17:24.864Z,21.00
2024-05-09T14:22:26.794Z,20.50
2024-05-09T14:27:29.792Z,20.40
2024-05-09T14:32:31.729Z,20.70
2024-05-09T14:37:35.505Z,20.30
2024-05-09T14:42:38.292Z,20.40
2024-05-09T14:47:40.612Z,20.50
2024-05-09T14:52:42.594Z,20.40
2024-05-09T14:57:44.454Z,20.20
2024-05-09T15:02:46.589Z,20.40
2024-05-09T15:07:49.901Z,20.10
2024-05-09T15:12:51.756Z,19.90
2024-05-09T15:17:54.551Z,19.90
2024-05-09T15:22:56.484Z,19.80
2024-05-09T15:27:58.447Z,19.70
2024-05-09T15:33:01.257Z,19.50
2024-05-09T15:38:04.413Z,19.40
2024-05-09T15:43:07.149Z,19.30
2024-05-09T15:48:10.729Z,19.40
2024-05-09T15:53:13.897Z,19.20
2024-05-09T15:58:16.074Z,19.00
2024-05-09T16:03:19.551Z,18.90
2024-05-09T16:08:21.479Z,18.90
2024-05-09T16:13:23.411Z,18.80
2024-05-09T16:18:25.616Z,18.70
2024-05-09T16:23:28.492Z,18.50
2024-05-09T16:28:30.474Z,18.50
2024-05-09T16:33:32.644Z,18.40
2024-05-09T16:38:34.639Z,18.40
2024-05-09T16:43:36.444Z,18.50
2024-05-09T16:48:40.821Z,18.40
2024-05-09T16:53:42.807Z,18.50
2024-05-09T16:58:44.764Z,18.50
2024-05-09T17:03:46.765Z,18.40
2024-05-09T17:08:49.453Z,18.20
2024-05-09T17:13:51.249Z,18.20
2024-05-09T17:18:53.171Z,18.30
2024-05-09T17:23:55.726Z,18.40
2024-05-09T17:28:57.798Z,18.20
2024-05-09T17:33:59.858Z,18.00
2024-05-09T17:39:01.995Z,17.80
2024-05-09T17:44:04.007Z,17.80
2024-05-09T17:49:06.001Z,17.60
2024-05-09T17:54:07.894Z,17.40
2024-05-09T17:59:11.557Z,17.40
2024-05-09T18:04:14.017Z,17.30
2024-05-09T18:09:15.935Z,17.20
2024-05-09T18:14:17.972Z,17.20
2024-05-09T18:19:19.943Z,17.00
2024-05-09T18:24:22.210Z,17.00
2024-05-09T18:29:24.069Z,16.80
2024-05-09T18:34:25.960Z,16.70
2024-05-09T18:39:27.903Z,16.50
2024-05-09T18:44:31.231Z,16.40
2024-05-09T18:49:33.187Z,16.20
2024-05-09T18:54:35.163Z,16.10
2024-05-09T18:59:37.046Z,16.00
2024-05-09T19:04:39.154Z,15.80
2024-05-09T19:09:41.184Z,15.70
2024-05-09T19:14:43.642Z,15.50
2024-05-09T19:19:45.596Z,15.40
2024-05-09T19:24:47.518Z,15.30
2024-05-09T19:29:49.330Z,15.10
2024-05-09T19:34:51.144Z,14.90
2024-05-09T19:39:52.989Z,14.80
2024-05-09T19:44:54.874Z,14.80
2024-05-09T19:49:56.789Z,14.60
2024-05-09T19:54:58.665Z,14.50
2024-05-09T20:00:00.923Z,14.40
2024-05-09T20:05:03.700Z,14.20
2024-05-09T20:10:13.072Z,14.10
2024-05-09T20:15:18.275Z,14.00
2024-05-09T20:20:28.429Z,13.90
2024-05-09T20:25:38.404Z,13.90
2024-05-09T20:30:40.374Z,13.70
2024-05-09T20:35:42.365Z,13.70
2024-05-09T20:40:44.263Z,13.70
2024-05-09T20:45:46.199Z,13.50
2024-05-09T20:50:48.198Z,13.40
2024-05-09T20:55:50.091Z,13.40
2024-05-09T21:00:51.991Z,13.40
2024-05-09T21:05:54.100Z,13.30
2024-05-09T21:10:56.136Z,13.20
2024-05-09T21:15:58.155Z,13.10
2024-05-09T21:21:00.051Z,13.20
2024-05-09T21:26:01.859Z,12.90
2024-05-09T21:31:03.879Z,12.90
2024-05-09T21:36:08.676Z,12.90
2024-05-09T21:41:10.510Z,12.70
2024-05-09T21:46:12.344Z,12.70
2024-05-09T21:51:14.971Z,12.70
2024-05-09T21:56:16.812Z,12.40
2024-05-09T22:01:18.723Z,12.10
2024-05-09T22:06:20.592Z,12.10
2024-05-09T22:11:22.453Z,12.30
2024-05-09T22:16:24.689Z,12.30
2024-05-09T22:21:26.636Z,12.00
2024-05-09T22:26:28.436Z,12.10
2024-05-09T22:31:30.280Z,11.90
2024-05-09T22:36:32.199Z,12.00
2024-05-09T22:41:34.009Z,11.90
2024-05-09T22:46:35.857Z,11.90
2024-05-09T22:51:37.755Z,11.90
2024-05-09T22:56:39.704Z,11.80
2024-05-09T23:01:41.581Z,11.70
2024-05-09T23:06:43.446Z,11.60
2024-05-09T23:11:45.879Z,11.40
2024-05-09T23:16:47.784Z,11.40
2024-05-09T23:21:49.749Z,11.40
2024-05-09T23:26:51.566Z,11.30
2024-05-09T23:31:53.447Z,11.30
2024-05-09T23:36:55.269Z,11.20
2024-05-09T23:41:57.061Z,10.90
2024-05-09T23:46:58.875Z,11.00
2024-05-09T23:52:00.761Z,11.10
2024-05-09T23:57:02.587Z,10.90
